sensor_id;sensor_type;location;lat;lon;timestamp;P1;durP1;ratioP1;P2;durP2;ratioP2
60919;SDS011;59039;52.108;19.942;2023-05-10T00:01:56;11.60;;;7.30;;
60919;SDS011;59039;52.108;19.942;2023-05-10T00:04:21;13.60;;;7.70;;
60919;SDS011;59039;52.108;19.942;2023-05-10T00:06:46;12.70;;;7.50;;
60919;SDS011;59039;52.108;19.942;2023-05-10T00:09:12;15.50;;;7.80;;
60919;SDS011;59039;52.108;19.942;2023-05-10T00:11:37;14.40;;;7.90;;
60919;SDS011;59039;52.108;19.942;2023-05-10T00:14:02;15.90;;;8.20;;
60919;SDS011;59039;52.108;19.942;2023-05-10T00:16:28;14.40;;;7.60;;
60919;SDS011;59039;52.108;19.942;2023-05-10T00:18:53;12.10;;;7.20;;
60919;SDS011;59039;52.108;19.942;2023-05-10T00:21:19;12.90;;;7.90;;
60919;SDS011;59039;52.108;19.942;2023-05-10T00:23:44;13.20;;;7.40;;
60919;SDS011;59039;52.108;19.942;2023-05-10T00:26:09;14.30;;;7.70;;
60919;SDS011;59039;52.108;19.942;2023-05-10T00:28:35;13.10;;;7.40;;
60919;SDS011;59039;52.108;19.942;2023-05-10T00:31:00;12.70;;;7.70;;
60919;SDS011;59039;52.108;19.942;2023-05-10T00:33:25;15.30;;;7.90;;
60919;SDS011;59039;52.108;19.942;2023-05-10T00:35:50;12.70;;;7.30;;
60919;SDS011;59039;52.108;19.942;2023-05-10T00:38:16;15.10;;;8.40;;
60919;SDS011;59039;52.108;19.942;2023-05-10T00:40:41;13.20;;;7.70;;
60919;SDS011;59039;52.108;19.942;2023-05-10T00:43:06;13.40;;;6.80;;
60919;SDS011;59039;52.108;19.942;2023-05-10T00:45:32;13.30;;;8.10;;
60919;SDS011;59039;52.108;19.942;2023-05-10T00:47:58;17.10;;;7.40;;
60919;SDS011;59039;52.108;19.942;2023-05-10T00:50:25;13.50;;;7.60;;
60919;SDS011;59039;52.108;19.942;2023-05-10T00:52:51;18.40;;;7.40;;
60919;SDS011;59039;52.108;19.942;2023-05-10T00:55:17;16.20;;;7.30;;
60919;SDS011;59039;52.108;19.942;2023-05-10T00:57:43;20.00;;;7.60;;
60919;SDS011;59039;52.108;19.942;2023-05-10T01:00:09;12.00;;;7.60;;
60919;SDS011;59039;52.108;19.942;2023-05-10T01:02:35;14.90;;;8.50;;
60919;SDS011;59039;52.108;19.942;2023-05-10T01:05:01;13.90;;;7.90;;
60919;SDS011;59039;52.108;19.942;2023-05-10T01:07:28;13.30;;;8.20;;
60919;SDS011;59039;52.108;19.942;2023-05-10T01:09:53;13.70;;;8.30;;
60919;SDS011;59039;52.108;19.942;2023-05-10T01:12:18;15.40;;;8.50;;
60919;SDS011;59039;52.108;19.942;2023-05-10T01:14:44;15.00;;;8.40;;
60919;SDS011;59039;52.108;19.942;2023-05-10T01:17:10;13.60;;;7.30;;
60919;SDS011;59039;52.108;19.942;2023-05-10T01:19:36;15.80;;;8.20;;
60919;SDS011;59039;52.108;19.942;2023-05-10T01:24:46;17.60;;;7.90;;
60919;SDS011;59039;52.108;19.942;2023-05-10T01:41:54;14.30;;;7.80;;
60919;SDS011;59039;52.108;19.942;2023-05-10T01:47:43;15.10;;;8.00;;
60919;SDS011;59039;52.108;19.942;2023-05-10T01:50:01;14.30;;;7.70;;
60919;SDS011;59039;52.108;19.942;2023-05-10T01:52:38;18.10;;;8.30;;
60919;SDS011;59039;52.108;19.942;2023-05-10T01:55:08;13.80;;;8.10;;
60919;SDS011;59039;52.108;19.942;2023-05-10T01:57:37;15.50;;;7.90;;
60919;SDS011;59039;52.108;19.942;2023-05-10T02:00:04;17.20;;;8.50;;
60919;SDS011;59039;52.108;19.942;2023-05-10T02:02:38;12.90;;;7.20;;
60919;SDS011;59039;52.108;19.942;2023-05-10T02:05:07;12.80;;;7.80;;
60919;SDS011;59039;52.108;19.942;2023-05-10T02:07:34;14.00;;;8.10;;
60919;SDS011;59039;52.108;19.942;2023-05-10T02:10:02;15.70;;;8.60;;
60919;SDS011;59039;52.108;19.942;2023-05-10T02:12:29;13.00;;;7.70;;
60919;SDS011;59039;52.108;19.942;2023-05-10T02:14:59;13.60;;;8.30;;
60919;SDS011;59039;52.108;19.942;2023-05-10T02:17:27;18.20;;;8.50;;
60919;SDS011;59039;52.108;19.942;2023-05-10T02:19:53;16.00;;;8.90;;
60919;SDS011;59039;52.108;19.942;2023-05-10T02:22:20;18.00;;;8.80;;
60919;SDS011;59039;52.108;19.942;2023-05-10T02:24:47;17.00;;;8.70;;
60919;SDS011;59039;52.108;19.942;2023-05-10T02:27:16;14.70;;;8.70;;
60919;SDS011;59039;52.108;19.942;2023-05-10T02:29:44;13.20;;;8.20;;
60919;SDS011;59039;52.108;19.942;2023-05-10T02:32:10;15.50;;;8.80;;
60919;SDS011;59039;52.108;19.942;2023-05-10T02:34:37;12.80;;;7.40;;
60919;SDS011;59039;52.108;19.942;2023-05-10T02:37:03;18.60;;;9.00;;
60919;SDS011;59039;52.108;19.942;2023-05-10T02:39:29;18.30;;;8.70;;
60919;SDS011;59039;52.108;19.942;2023-05-10T02:41:57;15.10;;;8.40;;
60919;SDS011;59039;52.108;19.942;2023-05-10T02:44:23;17.70;;;8.30;;
60919;SDS011;59039;52.108;19.942;2023-05-10T02:46:52;16.60;;;9.20;;
60919;SDS011;59039;52.108;19.942;2023-05-10T02:49:17;17.20;;;9.00;;
60919;SDS011;59039;52.108;19.942;2023-05-10T02:51:54;14.90;;;8.40;;
60919;SDS011;59039;52.108;19.942;2023-05-10T02:54:32;18.30;;;8.80;;
60919;SDS011;59039;52.108;19.942;2023-05-10T02:57:03;18.80;;;8.70;;
60919;SDS011;59039;52.108;19.942;2023-05-10T02:59:30;18.80;;;8.40;;
60919;SDS011;59039;52.108;19.942;2023-05-10T03:01:56;17.00;;;8.60;;
60919;SDS011;59039;52.108;19.942;2023-05-10T03:04:21;21.30;;;9.10;;
60919;SDS011;59039;52.108;19.942;2023-05-10T03:06:47;16.80;;;8.80;;
60919;SDS011;59039;52.108;19.942;2023-05-10T03:09:12;15.00;;;8.20;;
60919;SDS011;59039;52.108;19.942;2023-05-10T03:20:08;18.80;;;8.70;;
60919;SDS011;59039;52.108;19.942;2023-05-10T03:22:40;18.40;;;9.10;;
60919;SDS011;59039;52.108;19.942;2023-05-10T03:25:12;16.40;;;9.40;;
60919;SDS011;59039;52.108;19.942;2023-05-10T03:27:49;20.10;;;9.00;;
60919;SDS011;59039;52.108;19.942;2023-05-10T03:30:15;16.40;;;8.70;;
60919;SDS011;59039;52.108;19.942;2023-05-10T03:32:41;21.90;;;9.50;;
60919;SDS011;59039;52.108;19.942;2023-05-10T03:35:07;16.60;;;8.60;;
60919;SDS011;59039;52.108;19.942;2023-05-10T03:37:33;15.60;;;8.40;;
60919;SDS011;59039;52.108;19.942;2023-05-10T03:39:59;14.90;;;8.70;;
60919;SDS011;59039;52.108;19.942;2023-05-10T03:42:24;14.20;;;8.10;;
60919;SDS011;59039;52.108;19.942;2023-05-10T03:44:49;21.80;;;10.30;;
60919;SDS011;59039;52.108;19.942;2023-05-10T03:47:15;23.90;;;11.20;;
60919;SDS011;59039;52.108;19.942;2023-05-10T03:49:40;24.70;;;10.60;;
60919;SDS011;59039;52.108;19.942;2023-05-10T03:52:05;18.90;;;9.50;;
60919;SDS011;59039;52.108;19.942;2023-05-10T03:54:31;21.20;;;9.70;;
60919;SDS011;59039;52.108;19.942;2023-05-10T03:56:56;18.10;;;8.10;;
60919;SDS011;59039;52.108;19.942;2023-05-10T03:59:22;17.10;;;8.60;;
60919;SDS011;59039;52.108;19.942;2023-05-10T04:01:56;16.40;;;9.20;;
60919;SDS011;59039;52.108;19.942;2023-05-10T04:04:21;16.20;;;8.80;;
60919;SDS011;59039;52.108;19.942;2023-05-10T04:06:47;17.40;;;9.00;;
60919;SDS011;59039;52.108;19.942;2023-05-10T04:09:12;16.70;;;9.20;;
60919;SDS011;59039;52.108;19.942;2023-05-10T04:11:40;18.60;;;9.40;;
60919;SDS011;59039;52.108;19.942;2023-05-10T04:14:06;15.80;;;8.60;;
60919;SDS011;59039;52.108;19.942;2023-05-10T04:16:31;17.90;;;8.70;;
60919;SDS011;59039;52.108;19.942;2023-05-10T04:18:56;19.30;;;8.70;;
60919;SDS011;59039;52.108;19.942;2023-05-10T04:21:22;17.70;;;9.10;;
60919;SDS011;59039;52.108;19.942;2023-05-10T04:23:47;19.50;;;9.30;;
60919;SDS011;59039;52.108;19.942;2023-05-10T04:26:12;28.10;;;10.50;;
60919;SDS011;59039;52.108;19.942;2023-05-10T04:28:38;17.70;;;8.40;;
60919;SDS011;59039;52.108;19.942;2023-05-10T04:31:07;19.60;;;9.50;;
60919;SDS011;59039;52.108;19.942;2023-05-10T04:33:36;20.00;;;9.70;;
60919;SDS011;59039;52.108;19.942;2023-05-10T04:36:01;21.60;;;10.30;;
60919;SDS011;59039;52.108;19.942;2023-05-10T04:38:27;16.00;;;8.80;;
60919;SDS011;59039;52.108;19.942;2023-05-10T04:40:53;17.40;;;8.80;;
60919;SDS011;59039;52.108;19.942;2023-05-10T04:43:18;23.60;;;9.10;;
60919;SDS011;59039;52.108;19.942;2023-05-10T04:45:44;20.70;;;9.00;;
60919;SDS011;59039;52.108;19.942;2023-05-10T04:48:09;20.30;;;8.40;;
60919;SDS011;59039;52.108;19.942;2023-05-10T04:50:35;17.20;;;8.40;;
60919;SDS011;59039;52.108;19.942;2023-05-10T04:53:00;18.90;;;9.00;;
60919;SDS011;59039;52.108;19.942;2023-05-10T04:55:25;15.40;;;8.00;;
60919;SDS011;59039;52.108;19.942;2023-05-10T04:57:51;13.60;;;8.00;;
60919;SDS011;59039;52.108;19.942;2023-05-10T05:00:16;14.20;;;7.90;;
60919;SDS011;59039;52.108;19.942;2023-05-10T05:02:43;13.40;;;8.30;;
60919;SDS011;59039;52.108;19.942;2023-05-10T05:05:08;13.80;;;8.10;;
60919;SDS011;59039;52.108;19.942;2023-05-10T05:07:34;19.50;;;8.60;;
60919;SDS011;59039;52.108;19.942;2023-05-10T05:10:02;14.50;;;7.60;;
60919;SDS011;59039;52.108;19.942;2023-05-10T05:12:28;18.20;;;7.70;;
60919;SDS011;59039;52.108;19.942;2023-05-10T05:14:53;14.80;;;7.10;;
60919;SDS011;59039;52.108;19.942;2023-05-10T05:17:18;18.00;;;7.40;;
60919;SDS011;59039;52.108;19.942;2023-05-10T05:19:44;12.40;;;6.80;;
60919;SDS011;59039;52.108;19.942;2023-05-10T05:22:09;11.90;;;6.20;;
60919;SDS011;59039;52.108;19.942;2023-05-10T05:24:35;13.80;;;7.20;;
60919;SDS011;59039;52.108;19.942;2023-05-10T05:27:01;11.90;;;6.40;;
60919;SDS011;59039;52.108;19.942;2023-05-10T05:29:26;17.60;;;6.70;;
60919;SDS011;59039;52.108;19.942;2023-05-10T05:31:51;12.20;;;6.50;;
60919;SDS011;59039;52.108;19.942;2023-05-10T05:34:17;18.20;;;6.90;;
60919;SDS011;59039;52.108;19.942;2023-05-10T05:36:42;10.90;;;6.80;;
60919;SDS011;59039;52.108;19.942;2023-05-10T05:39:08;13.50;;;7.60;;
60919;SDS011;59039;52.108;19.942;2023-05-10T05:41:33;14.70;;;6.60;;
60919;SDS011;59039;52.108;19.942;2023-05-10T05:43:58;11.00;;;7.00;;
60919;SDS011;59039;52.108;19.942;2023-05-10T05:46:23;18.10;;;7.60;;
60919;SDS011;59039;52.108;19.942;2023-05-10T05:48:49;13.80;;;7.00;;
60919;SDS011;59039;52.108;19.942;2023-05-10T05:51:14;10.60;;;7.00;;
60919;SDS011;59039;52.108;19.942;2023-05-10T05:53:39;12.60;;;7.20;;
60919;SDS011;59039;52.108;19.942;2023-05-10T05:56:05;12.80;;;8.00;;
60919;SDS011;59039;52.108;19.942;2023-05-10T05:58:30;12.80;;;7.00;;
60919;SDS011;59039;52.108;19.942;2023-05-10T06:00:55;15.00;;;7.30;;
60919;SDS011;59039;52.108;19.942;2023-05-10T06:03:21;13.70;;;7.90;;
60919;SDS011;59039;52.108;19.942;2023-05-10T06:05:46;11.30;;;6.40;;
60919;SDS011;59039;52.108;19.942;2023-05-10T06:08:11;12.00;;;7.60;;
60919;SDS011;59039;52.108;19.942;2023-05-10T06:10:37;10.30;;;6.40;;
60919;SDS011;59039;52.108;19.942;2023-05-10T06:13:02;14.70;;;6.60;;
60919;SDS011;59039;52.108;19.942;2023-05-10T06:15:37;11.20;;;7.60;;
60919;SDS011;59039;52.108;19.942;2023-05-10T06:18:05;11.00;;;6.50;;
60919;SDS011;59039;52.108;19.942;2023-05-10T06:20:31;11.80;;;7.10;;
60919;SDS011;59039;52.108;19.942;2023-05-10T06:23:03;14.20;;;7.40;;
60919;SDS011;59039;52.108;19.942;2023-05-10T06:25:31;13.10;;;6.40;;
60919;SDS011;59039;52.108;19.942;2023-05-10T06:27:56;12.80;;;7.20;;
60919;SDS011;59039;52.108;19.942;2023-05-10T06:30:22;12.00;;;6.70;;
60919;SDS011;59039;52.108;19.942;2023-05-10T06:32:48;9.80;;;6.20;;
60919;SDS011;59039;52.108;19.942;2023-05-10T06:35:27;11.30;;;6.20;;
60919;SDS011;59039;52.108;19.942;2023-05-10T06:37:53;14.30;;;6.00;;
60919;SDS011;59039;52.108;19.942;2023-05-10T06:40:18;10.30;;;5.50;;
60919;SDS011;59039;52.108;19.942;2023-05-10T06:42:44;12.60;;;4.60;;
60919;SDS011;59039;52.108;19.942;2023-05-10T06:45:09;13.60;;;6.10;;
60919;SDS011;59039;52.108;19.942;2023-05-10T06:47:41;8.80;;;5.00;;
60919;SDS011;59039;52.108;19.942;2023-05-10T06:50:07;7.20;;;4.50;;
60919;SDS011;59039;52.108;19.942;2023-05-10T06:52:33;11.80;;;5.40;;
60919;SDS011;59039;52.108;19.942;2023-05-10T06:55:19;8.70;;;4.70;;
60919;SDS011;59039;52.108;19.942;2023-05-10T06:57:44;7.10;;;4.40;;
60919;SDS011;59039;52.108;19.942;2023-05-10T07:00:10;6.80;;;4.80;;
60919;SDS011;59039;52.108;19.942;2023-05-10T07:02:35;5.90;;;4.50;;
60919;SDS011;59039;52.108;19.942;2023-05-10T07:05:01;9.70;;;4.80;;
60919;SDS011;59039;52.108;19.942;2023-05-10T07:07:26;6.90;;;4.60;;
60919;SDS011;59039;52.108;19.942;2023-05-10T07:09:52;10.90;;;5.20;;
60919;SDS011;59039;52.108;19.942;2023-05-10T07:12:17;7.60;;;4.80;;
60919;SDS011;59039;52.108;19.942;2023-05-10T07:14:42;9.70;;;5.10;;
60919;SDS011;59039;52.108;19.942;2023-05-10T07:17:08;9.80;;;4.90;;
60919;SDS011;59039;52.108;19.942;2023-05-10T07:19:33;5.50;;;3.70;;
60919;SDS011;59039;52.108;19.942;2023-05-10T07:21:59;9.50;;;5.20;;
60919;SDS011;59039;52.108;19.942;2023-05-10T07:24:24;11.80;;;5.00;;
60919;SDS011;59039;52.108;19.942;2023-05-10T07:26:49;10.90;;;5.20;;
60919;SDS011;59039;52.108;19.942;2023-05-10T07:29:15;13.20;;;7.80;;
60919;SDS011;59039;52.108;19.942;2023-05-10T07:31:43;8.00;;;5.20;;
60919;SDS011;59039;52.108;19.942;2023-05-10T07:34:09;8.40;;;4.70;;
60919;SDS011;59039;52.108;19.942;2023-05-10T07:36:34;10.90;;;5.20;;
60919;SDS011;59039;52.108;19.942;2023-05-10T07:38:59;12.20;;;5.20;;
60919;SDS011;59039;52.108;19.942;2023-05-10T07:41:25;11.00;;;4.80;;
60919;SDS011;59039;52.108;19.942;2023-05-10T07:43:50;9.40;;;5.40;;
60919;SDS011;59039;52.108;19.942;2023-05-10T07:46:15;9.50;;;4.50;;
60919;SDS011;59039;52.108;19.942;2023-05-10T07:48:41;12.00;;;5.80;;
60919;SDS011;59039;52.108;19.942;2023-05-10T07:51:06;18.90;;;11.30;;
60919;SDS011;59039;52.108;19.942;2023-05-10T07:53:37;19.00;;;12.90;;
60919;SDS011;59039;52.108;19.942;2023-05-10T07:56:19;23.40;;;13.40;;
60919;SDS011;59039;52.108;19.942;2023-05-10T07:58:54;27.70;;;19.90;;
60919;SDS011;59039;52.108;19.942;2023-05-10T08:01:20;25.90;;;17.70;;
60919;SDS011;59039;52.108;19.942;2023-05-10T08:03:46;15.00;;;11.10;;
60919;SDS011;59039;52.108;19.942;2023-05-10T08:06:11;24.60;;;15.20;;
60919;SDS011;59039;52.108;19.942;2023-05-10T08:08:36;21.80;;;15.00;;
60919;SDS011;59039;52.108;19.942;2023-05-10T08:11:03;13.50;;;8.90;;
60919;SDS011;59039;52.108;19.942;2023-05-10T08:13:31;16.00;;;10.50;;
60919;SDS011;59039;52.108;19.942;2023-05-10T08:15:59;17.30;;;10.10;;
60919;SDS011;59039;52.108;19.942;2023-05-10T08:18:26;14.40;;;9.00;;
60919;SDS011;59039;52.108;19.942;2023-05-10T08:20:51;15.20;;;8.20;;
60919;SDS011;59039;52.108;19.942;2023-05-10T08:23:17;11.40;;;6.40;;
60919;SDS011;59039;52.108;19.942;2023-05-10T08:25:42;11.80;;;5.40;;
60919;SDS011;59039;52.108;19.942;2023-05-10T08:28:07;10.70;;;4.80;;
60919;SDS011;59039;52.108;19.942;2023-05-10T08:30:33;13.00;;;5.20;;
60919;SDS011;59039;52.108;19.942;2023-05-10T08:32:58;10.50;;;5.10;;
60919;SDS011;59039;52.108;19.942;2023-05-10T08:35:23;10.40;;;5.50;;
60919;SDS011;59039;52.108;19.942;2023-05-10T08:37:49;9.00;;;6.90;;
60919;SDS011;59039;52.108;19.942;2023-05-10T08:40:14;11.40;;;5.60;;
60919;SDS011;59039;52.108;19.942;2023-05-10T08:42:42;14.00;;;6.30;;
60919;SDS011;59039;52.108;19.942;2023-05-10T08:45:12;12.30;;;5.60;;
60919;SDS011;59039;52.108;19.942;2023-05-10T08:47:38;10.10;;;6.00;;
60919;SDS011;59039;52.108;19.942;2023-05-10T08:50:04;11.20;;;5.50;;
60919;SDS011;59039;52.108;19.942;2023-05-10T08:52:31;14.50;;;5.30;;
60919;SDS011;59039;52.108;19.942;2023-05-10T08:54:59;8.50;;;4.70;;
60919;SDS011;59039;52.108;19.942;2023-05-10T08:57:25;9.20;;;4.00;;
60919;SDS011;59039;52.108;19.942;2023-05-10T08:59:50;8.00;;;4.00;;
60919;SDS011;59039;52.108;19.942;2023-05-10T09:02:16;7.60;;;4.60;;
60919;SDS011;59039;52.108;19.942;2023-05-10T09:04:43;9.70;;;4.70;;
60919;SDS011;59039;52.108;19.942;2023-05-10T09:07:08;8.70;;;4.50;;
60919;SDS011;59039;52.108;19.942;2023-05-10T09:09:33;8.80;;;4.30;;
60919;SDS011;59039;52.108;19.942;2023-05-10T09:12:00;7.90;;;4.20;;
60919;SDS011;59039;52.108;19.942;2023-05-10T09:14:25;7.30;;;4.30;;
60919;SDS011;59039;52.108;19.942;2023-05-10T09:16:51;10.90;;;4.80;;
60919;SDS011;59039;52.108;19.942;2023-05-10T09:19:17;9.10;;;4.70;;
60919;SDS011;59039;52.108;19.942;2023-05-10T09:21:42;6.60;;;4.30;;
60919;SDS011;59039;52.108;19.942;2023-05-10T09:24:08;10.70;;;4.50;;
60919;SDS011;59039;52.108;19.942;2023-05-10T09:26:34;6.40;;;4.10;;
60919;SDS011;59039;52.108;19.942;2023-05-10T09:29:00;10.70;;;4.30;;
60919;SDS011;59039;52.108;19.942;2023-05-10T09:34:15;7.40;;;5.00;;
60919;SDS011;59039;52.108;19.942;2023-05-10T09:36:54;8.90;;;4.40;;
60919;SDS011;59039;52.108;19.942;2023-05-10T09:39:25;11.60;;;5.00;;
60919;SDS011;59039;52.108;19.942;2023-05-10T09:42:17;6.80;;;4.50;;
60919;SDS011;59039;52.108;19.942;2023-05-10T09:44:43;7.00;;;3.90;;
60919;SDS011;59039;52.108;19.942;2023-05-10T09:47:10;10.80;;;4.30;;
60919;SDS011;59039;52.108;19.942;2023-05-10T09:49:42;14.00;;;4.10;;
60919;SDS011;59039;52.108;19.942;2023-05-10T09:52:14;7.50;;;4.00;;
60919;SDS011;59039;52.108;19.942;2023-05-10T09:54:42;6.80;;;5.10;;
60919;SDS011;59039;52.108;19.942;2023-05-10T09:57:21;7.50;;;4.40;;
60919;SDS011;59039;52.108;19.942;2023-05-10T09:59:47;8.40;;;4.00;;
60919;SDS011;59039;52.108;19.942;2023-05-10T10:02:12;7.50;;;4.10;;
60919;SDS011;59039;52.108;19.942;2023-05-10T10:04:42;8.70;;;4.10;;
60919;SDS011;59039;52.108;19.942;2023-05-10T10:07:07;5.50;;;4.00;;
60919;SDS011;59039;52.108;19.942;2023-05-10T10:09:34;5.80;;;4.10;;
60919;SDS011;59039;52.108;19.942;2023-05-10T10:12:00;7.50;;;4.00;;
60919;SDS011;59039;52.108;19.942;2023-05-10T10:14:26;14.20;;;4.80;;
60919;SDS011;59039;52.108;19.942;2023-05-10T10:16:52;11.90;;;4.40;;
60919;SDS011;59039;52.108;19.942;2023-05-10T10:19:20;6.90;;;4.00;;
60919;SDS011;59039;52.108;19.942;2023-05-10T10:21:47;6.00;;;4.30;;
60919;SDS011;59039;52.108;19.942;2023-05-10T10:24:12;11.30;;;4.40;;
60919;SDS011;59039;52.108;19.942;2023-05-10T10:26:38;7.80;;;4.10;;
60919;SDS011;59039;52.108;19.942;2023-05-10T10:31:44;11.10;;;4.50;;
60919;SDS011;59039;52.108;19.942;2023-05-10T10:34:14;5.30;;;3.80;;
60919;SDS011;59039;52.108;19.942;2023-05-10T10:36:52;7.10;;;4.20;;
60919;SDS011;59039;52.108;19.942;2023-05-10T10:39:18;8.10;;;4.40;;
60919;SDS011;59039;52.108;19.942;2023-05-10T10:41:49;7.30;;;4.20;;
60919;SDS011;59039;52.108;19.942;2023-05-10T10:47:04;6.20;;;4.00;;
60919;SDS011;59039;52.108;19.942;2023-05-10T10:49:34;7.20;;;4.40;;
60919;SDS011;59039;52.108;19.942;2023-05-10T10:54:59;8.40;;;3.90;;
60919;SDS011;59039;52.108;19.942;2023-05-10T10:57:24;9.00;;;4.40;;
60919;SDS011;59039;52.108;19.942;2023-05-10T10:59:50;8.20;;;4.60;;
60919;SDS011;59039;52.108;19.942;2023-05-10T11:02:37;9.20;;;4.50;;
60919;SDS011;59039;52.108;19.942;2023-05-10T11:13:27;7.30;;;4.20;;
60919;SDS011;59039;52.108;19.942;2023-05-10T11:15:53;7.30;;;4.20;;
60919;SDS011;59039;52.108;19.942;2023-05-10T11:18:20;7.80;;;4.70;;
60919;SDS011;59039;52.108;19.942;2023-05-10T11:20:51;6.40;;;4.30;;
60919;SDS011;59039;52.108;19.942;2023-05-10T11:23:20;9.70;;;4.20;;
60919;SDS011;59039;52.108;19.942;2023-05-10T11:25:45;7.10;;;4.20;;
60919;SDS011;59039;52.108;19.942;2023-05-10T11:28:11;6.10;;;4.30;;
60919;SDS011;59039;52.108;19.942;2023-05-10T11:30:38;7.00;;;4.30;;
60919;SDS011;59039;52.108;19.942;2023-05-10T11:33:04;8.70;;;3.80;;
60919;SDS011;59039;52.108;19.942;2023-05-10T11:35:30;9.80;;;4.10;;
60919;SDS011;59039;52.108;19.942;2023-05-10T11:37:55;5.90;;;3.50;;
60919;SDS011;59039;52.108;19.942;2023-05-10T11:40:23;9.10;;;4.70;;
60919;SDS011;59039;52.108;19.942;2023-05-10T11:42:48;5.30;;;3.70;;
60919;SDS011;59039;52.108;19.942;2023-05-10T11:45:13;4.40;;;3.40;;
60919;SDS011;59039;52.108;19.942;2023-05-10T11:47:39;7.60;;;3.80;;
60919;SDS011;59039;52.108;19.942;2023-05-10T11:50:04;8.80;;;4.00;;
60919;SDS011;59039;52.108;19.942;2023-05-10T11:52:35;9.90;;;3.50;;
60919;SDS011;59039;52.108;19.942;2023-05-10T11:55:00;7.90;;;3.80;;
60919;SDS011;59039;52.108;19.942;2023-05-10T11:57:33;9.20;;;4.00;;
60919;SDS011;59039;52.108;19.942;2023-05-10T11:59:59;8.10;;;4.10;;
60919;SDS011;59039;52.108;19.942;2023-05-10T12:02:24;7.10;;;3.60;;
60919;SDS011;59039;52.108;19.942;2023-05-10T12:04:50;6.80;;;4.40;;
60919;SDS011;59039;52.108;19.942;2023-05-10T12:07:16;8.70;;;4.20;;
60919;SDS011;59039;52.108;19.942;2023-05-10T12:10:01;12.30;;;4.30;;
60919;SDS011;59039;52.108;19.942;2023-05-10T12:12:34;6.60;;;3.70;;
60919;SDS011;59039;52.108;19.942;2023-05-10T12:15:01;7.50;;;4.20;;
60919;SDS011;59039;52.108;19.942;2023-05-10T12:17:27;6.50;;;4.10;;
60919;SDS011;59039;52.108;19.942;2023-05-10T12:19:53;9.20;;;4.30;;
60919;SDS011;59039;52.108;19.942;2023-05-10T12:22:20;8.00;;;3.80;;
60919;SDS011;59039;52.108;19.942;2023-05-10T12:24:49;8.40;;;3.90;;
60919;SDS011;59039;52.108;19.942;2023-05-10T12:27:15;5.70;;;4.10;;
60919;SDS011;59039;52.108;19.942;2023-05-10T12:29:49;8.00;;;3.70;;
60919;SDS011;59039;52.108;19.942;2023-05-10T12:32:15;6.50;;;3.80;;
60919;SDS011;59039;52.108;19.942;2023-05-10T12:34:40;6.70;;;4.40;;
60919;SDS011;59039;52.108;19.942;2023-05-10T12:37:06;5.30;;;4.20;;
60919;SDS011;59039;52.108;19.942;2023-05-10T12:39:41;5.70;;;4.00;;
60919;SDS011;59039;52.108;19.942;2023-05-10T12:42:07;5.20;;;3.80;;
60919;SDS011;59039;52.108;19.942;2023-05-10T12:44:32;9.40;;;4.40;;
60919;SDS011;59039;52.108;19.942;2023-05-10T12:46:58;7.60;;;4.00;;
60919;SDS011;59039;52.108;19.942;2023-05-10T12:49:24;8.10;;;3.90;;
60919;SDS011;59039;52.108;19.942;2023-05-10T12:51:49;10.10;;;4.50;;
60919;SDS011;59039;52.108;19.942;2023-05-10T12:54:14;8.40;;;4.00;;
60919;SDS011;59039;52.108;19.942;2023-05-10T12:56:40;9.90;;;3.80;;
60919;SDS011;59039;52.108;19.942;2023-05-10T12:59:05;5.60;;;4.20;;
60919;SDS011;59039;52.108;19.942;2023-05-10T13:01:30;4.60;;;3.70;;
60919;SDS011;59039;52.108;19.942;2023-05-10T13:04:16;13.00;;;4.00;;
60919;SDS011;59039;52.108;19.942;2023-05-10T13:06:41;7.90;;;4.10;;
60919;SDS011;59039;52.108;19.942;2023-05-10T13:09:06;5.60;;;4.00;;
60919;SDS011;59039;52.108;19.942;2023-05-10T13:11:32;5.10;;;3.60;;
60919;SDS011;59039;52.108;19.942;2023-05-10T13:13:57;5.10;;;3.80;;
60919;SDS011;59039;52.108;19.942;2023-05-10T13:16:27;9.90;;;4.00;;
60919;SDS011;59039;52.108;19.942;2023-05-10T13:18:53;7.90;;;3.70;;
60919;SDS011;59039;52.108;19.942;2023-05-10T13:21:18;6.40;;;3.70;;
60919;SDS011;59039;52.108;19.942;2023-05-10T13:23:43;6.50;;;4.00;;
60919;SDS011;59039;52.108;19.942;2023-05-10T13:26:09;12.30;;;4.50;;
60919;SDS011;59039;52.108;19.942;2023-05-10T13:28:34;5.70;;;3.90;;
60919;SDS011;59039;52.108;19.942;2023-05-10T13:30:59;5.70;;;3.70;;
60919;SDS011;59039;52.108;19.942;2023-05-10T13:33:25;8.70;;;4.40;;
60919;SDS011;59039;52.108;19.942;2023-05-10T13:35:50;5.40;;;4.10;;
60919;SDS011;59039;52.108;19.942;2023-05-10T13:38:19;9.20;;;4.50;;
60919;SDS011;59039;52.108;19.942;2023-05-10T13:40:44;6.70;;;3.70;;
60919;SDS011;59039;52.108;19.942;2023-05-10T13:43:09;8.10;;;4.40;;
60919;SDS011;59039;52.108;19.942;2023-05-10T13:45:34;8.30;;;3.70;;
60919;SDS011;59039;52.108;19.942;2023-05-10T13:48:02;7.40;;;4.00;;
60919;SDS011;59039;52.108;19.942;2023-05-10T13:50:28;9.40;;;3.60;;
60919;SDS011;59039;52.108;19.942;2023-05-10T13:52:56;8.40;;;3.90;;
60919;SDS011;59039;52.108;19.942;2023-05-10T13:55:22;8.20;;;3.80;;
60919;SDS011;59039;52.108;19.942;2023-05-10T13:57:47;10.20;;;4.80;;
60919;SDS011;59039;52.108;19.942;2023-05-10T14:00:22;8.60;;;4.10;;
60919;SDS011;59039;52.108;19.942;2023-05-10T14:02:57;6.50;;;3.80;;
60919;SDS011;59039;52.108;19.942;2023-05-10T14:05:22;5.40;;;3.40;;
60919;SDS011;59039;52.108;19.942;2023-05-10T14:07:50;5.90;;;3.80;;
60919;SDS011;59039;52.108;19.942;2023-05-10T14:10:15;10.00;;;3.80;;
60919;SDS011;59039;52.108;19.942;2023-05-10T14:12:41;8.70;;;3.90;;
60919;SDS011;59039;52.108;19.942;2023-05-10T14:15:06;9.30;;;3.90;;
60919;SDS011;59039;52.108;19.942;2023-05-10T14:17:49;9.40;;;3.80;;
60919;SDS011;59039;52.108;19.942;2023-05-10T14:23:17;7.50;;;4.10;;
60919;SDS011;59039;52.108;19.942;2023-05-10T14:25:43;5.80;;;3.80;;
60919;SDS011;59039;52.108;19.942;2023-05-10T14:28:12;7.50;;;3.60;;
60919;SDS011;59039;52.108;19.942;2023-05-10T14:30:37;6.60;;;3.70;;
60919;SDS011;59039;52.108;19.942;2023-05-10T14:33:02;7.60;;;3.70;;
60919;SDS011;59039;52.108;19.942;2023-05-10T14:35:28;8.40;;;4.50;;
60919;SDS011;59039;52.108;19.942;2023-05-10T14:38:15;7.10;;;3.90;;
60919;SDS011;59039;52.108;19.942;2023-05-10T14:40:39;9.40;;;4.30;;
60919;SDS011;59039;52.108;19.942;2023-05-10T14:43:05;9.90;;;5.00;;
60919;SDS011;59039;52.108;19.942;2023-05-10T14:45:30;10.20;;;3.90;;
60919;SDS011;59039;52.108;19.942;2023-05-10T14:47:56;6.60;;;3.60;;
60919;SDS011;59039;52.108;19.942;2023-05-10T14:50:24;6.90;;;4.00;;
60919;SDS011;59039;52.108;19.942;2023-05-10T14:52:59;9.10;;;4.30;;
60919;SDS011;59039;52.108;19.942;2023-05-10T14:55:44;10.10;;;3.70;;
60919;SDS011;59039;52.108;19.942;2023-05-10T14:58:09;4.90;;;3.60;;
60919;SDS011;59039;52.108;19.942;2023-05-10T15:00:35;8.40;;;3.80;;
60919;SDS011;59039;52.108;19.942;2023-05-10T15:03:03;7.50;;;4.70;;
60919;SDS011;59039;52.108;19.942;2023-05-10T15:05:29;8.10;;;3.90;;
60919;SDS011;59039;52.108;19.942;2023-05-10T15:07:54;8.30;;;3.90;;
60919;SDS011;59039;52.108;19.942;2023-05-10T15:10:19;8.40;;;4.40;;
60919;SDS011;59039;52.108;19.942;2023-05-10T15:12:47;9.60;;;4.70;;
60919;SDS011;59039;52.108;19.942;2023-05-10T15:15:13;7.80;;;4.40;;
60919;SDS011;59039;52.108;19.942;2023-05-10T15:17:38;10.00;;;4.80;;